Ana Sayfa
METAR-TAF:

METAR-TAF

Havaalanları :

Çernivtsi Uluslararası Havalimanı

Çernivtsi, Ukrayna

Enlem: 48-15-36N, Boylam: 025-58-54E, yükseklik: 252 m

Güncel hava durumu gözlemi

Rapor saat 03:00 UTC de 36 dakika önce yapıldı.
Rüzgar güney/güneybatıdan 4 kt
Sıcaklık -2°C
Nem 74%
Basınç 1005 hPa
Görüş mesafesi 10 km veya daha fazla
1500 m altında bulut yok ve kümülonimbus yok

METAR: UKLN 280300Z 21002MPS CAVOK M02/M06 Q1005 R33/09//70 NOSIG

Saat: 05:36 (03:36 UTC)

Tahmin

Rapor saat 03:12 UTC de 24 dakika önce yapıldı.
Ayın 28'si saat 04 UTC'den ayın 28'si saat 12 UTC'ye kadar geçerli Tahmin
Rüzgar değişken yönden 2 kt
Görüş mesafesi 10 km veya daha fazla
3300 ft yükseklikte parçalı çok bulutlu
Geçici
ayın 28'si saat 04 UTC'den ayın 28'si saat 12 UTC'ye kadar
Rüzgar doğu/güneydoğudan 10 kt
1500 ft yükseklikte parçalı çok bulutlu, Kümülonimbus.

TAF: UKLN 280312Z 2804/2812 VRB01MPS 9999 BKN033 TX06/2812Z TNM03/2804Z TEMPO 2804/2812 BKN015CB 12005MPS

4.000'den fazla havaalanı için hava durumu gözlemleri ve tahminleri (METAR ve TAF raporları).

Kullanılabilir istasyonlar harita üzerinde sarı ve kırmızı noktalarla gösterilir.

İstasyonun adını görmek için fareyi noktanın üzerinde gezdirin.

Sonrasında hava gözlem ve tahminlerini görmek için tıklayın.

Haritayı değiştirmek için: yaklaştırmak için siyah artı işaretli yeşil düğmeye ve uzaklaştırmak için de eksi işaretli düğmeye hızla tıklayın; bitişik haritalar için yeşil okları kullanın.


METAR-TAF: